sensor_id;sensor_type;location;lat;lon;timestamp;P1;durP1;ratioP1;P2;durP2;ratioP2
45684;SDS011;46836;48.388;16.210;2023-05-10T00:01:33;2.95;;;2.50;;
45684;SDS011;46836;48.388;16.210;2023-05-10T00:04:00;5.75;;;2.40;;
45684;SDS011;46836;48.388;16.210;2023-05-10T00:06:27;2.47;;;2.17;;
45684;SDS011;46836;48.388;16.210;2023-05-10T00:08:54;3.40;;;2.30;;
45684;SDS011;46836;48.388;16.210;2023-05-10T00:11:21;3.88;;;2.25;;
45684;SDS011;46836;48.388;16.210;2023-05-10T00:13:48;3.80;;;2.45;;
45684;SDS011;46836;48.388;16.210;2023-05-10T00:16:15;3.30;;;2.50;;
45684;SDS011;46836;48.388;16.210;2023-05-10T00:18:42;2.35;;;2.08;;
45684;SDS011;46836;48.388;16.210;2023-05-10T00:21:09;3.30;;;2.10;;
45684;SDS011;46836;48.388;16.210;2023-05-10T00:23:36;4.50;;;2.50;;
45684;SDS011;46836;48.388;16.210;2023-05-10T00:26:03;6.90;;;2.47;;
45684;SDS011;46836;48.388;16.210;2023-05-10T00:28:31;2.67;;;2.35;;
45684;SDS011;46836;48.388;16.210;2023-05-10T00:30:58;2.55;;;2.33;;
45684;SDS011;46836;48.388;16.210;2023-05-10T00:33:25;2.72;;;2.20;;
45684;SDS011;46836;48.388;16.210;2023-05-10T00:35:52;13.77;;;2.80;;
45684;SDS011;46836;48.388;16.210;2023-05-10T00:38:19;3.15;;;2.40;;
45684;SDS011;46836;48.388;16.210;2023-05-10T00:40:46;3.00;;;2.70;;
45684;SDS011;46836;48.388;16.210;2023-05-10T00:43:13;3.00;;;2.20;;
45684;SDS011;46836;48.388;16.210;2023-05-10T00:45:40;4.18;;;2.58;;
45684;SDS011;46836;48.388;16.210;2023-05-10T00:48:07;6.30;;;3.10;;
45684;SDS011;46836;48.388;16.210;2023-05-10T00:50:35;4.55;;;2.90;;
45684;SDS011;46836;48.388;16.210;2023-05-10T00:53:02;3.97;;;2.85;;
45684;SDS011;46836;48.388;16.210;2023-05-10T00:55:30;6.63;;;2.78;;
45684;SDS011;46836;48.388;16.210;2023-05-10T00:57:57;8.75;;;2.25;;
45684;SDS011;46836;48.388;16.210;2023-05-10T01:00:24;3.05;;;2.72;;
45684;SDS011;46836;48.388;16.210;2023-05-10T01:02:52;3.20;;;2.53;;
45684;SDS011;46836;48.388;16.210;2023-05-10T01:05:20;4.05;;;2.55;;
45684;SDS011;46836;48.388;16.210;2023-05-10T01:07:48;2.63;;;2.42;;
45684;SDS011;46836;48.388;16.210;2023-05-10T01:10:15;3.45;;;2.72;;
45684;SDS011;46836;48.388;16.210;2023-05-10T01:12:44;3.38;;;2.90;;
45684;SDS011;46836;48.388;16.210;2023-05-10T01:15:13;3.40;;;2.70;;
45684;SDS011;46836;48.388;16.210;2023-05-10T01:17:43;4.18;;;2.63;;
45684;SDS011;46836;48.388;16.210;2023-05-10T01:20:11;3.33;;;2.83;;
45684;SDS011;46836;48.388;16.210;2023-05-10T01:34:00;3.33;;;2.60;;
45684;SDS011;46836;48.388;16.210;2023-05-10T01:36:43;3.22;;;2.85;;
45684;SDS011;46836;48.388;16.210;2023-05-10T01:39:19;5.45;;;2.78;;
45684;SDS011;46836;48.388;16.210;2023-05-10T01:45:06;2.95;;;2.60;;
45684;SDS011;46836;48.388;16.210;2023-05-10T01:47:37;5.22;;;2.85;;
45684;SDS011;46836;48.388;16.210;2023-05-10T01:50:15;4.25;;;3.08;;
45684;SDS011;46836;48.388;16.210;2023-05-10T01:52:50;3.03;;;2.47;;
45684;SDS011;46836;48.388;16.210;2023-05-10T01:55:21;3.67;;;2.50;;
45684;SDS011;46836;48.388;16.210;2023-05-10T01:57:53;5.20;;;3.38;;
45684;SDS011;46836;48.388;16.210;2023-05-10T02:00:28;4.00;;;3.22;;
45684;SDS011;46836;48.388;16.210;2023-05-10T02:02:57;3.10;;;2.80;;
45684;SDS011;46836;48.388;16.210;2023-05-10T02:05:27;3.03;;;2.72;;
45684;SDS011;46836;48.388;16.210;2023-05-10T02:07:56;3.90;;;3.10;;
45684;SDS011;46836;48.388;16.210;2023-05-10T02:10:28;4.30;;;2.88;;
45684;SDS011;46836;48.388;16.210;2023-05-10T02:12:56;3.00;;;2.70;;
45684;SDS011;46836;48.388;16.210;2023-05-10T02:15:26;4.47;;;2.80;;
45684;SDS011;46836;48.388;16.210;2023-05-10T02:17:55;3.25;;;2.67;;
45684;SDS011;46836;48.388;16.210;2023-05-10T02:20:25;3.50;;;3.17;;
45684;SDS011;46836;48.388;16.210;2023-05-10T02:22:54;5.47;;;3.38;;
45684;SDS011;46836;48.388;16.210;2023-05-10T02:25:23;4.35;;;2.92;;
45684;SDS011;46836;48.388;16.210;2023-05-10T02:27:53;4.05;;;3.17;;
45684;SDS011;46836;48.388;16.210;2023-05-10T02:30:22;3.50;;;3.20;;
45684;SDS011;46836;48.388;16.210;2023-05-10T02:32:50;3.28;;;2.97;;
45684;SDS011;46836;48.388;16.210;2023-05-10T02:35:19;3.25;;;2.95;;
45684;SDS011;46836;48.388;16.210;2023-05-10T02:37:47;5.07;;;4.03;;
45684;SDS011;46836;48.388;16.210;2023-05-10T02:40:15;5.10;;;3.75;;
45684;SDS011;46836;48.388;16.210;2023-05-10T02:42:44;4.18;;;3.03;;
45684;SDS011;46836;48.388;16.210;2023-05-10T02:45:15;4.30;;;3.60;;
45684;SDS011;46836;48.388;16.210;2023-05-10T02:47:45;4.70;;;3.78;;
45684;SDS011;46836;48.388;16.210;2023-05-10T02:50:13;3.45;;;3.15;;
45684;SDS011;46836;48.388;16.210;2023-05-10T02:52:51;4.05;;;3.55;;
45684;SDS011;46836;48.388;16.210;2023-05-10T02:55:25;4.22;;;3.10;;
45684;SDS011;46836;48.388;16.210;2023-05-10T02:57:59;5.63;;;3.78;;
45684;SDS011;46836;48.388;16.210;2023-05-10T03:00:27;4.60;;;3.28;;
45684;SDS011;46836;48.388;16.210;2023-05-10T03:02:54;4.25;;;3.38;;
45684;SDS011;46836;48.388;16.210;2023-05-10T03:05:22;4.20;;;3.55;;
45684;SDS011;46836;48.388;16.210;2023-05-10T03:07:49;8.82;;;3.75;;
45684;SDS011;46836;48.388;16.210;2023-05-10T03:10:17;6.25;;;3.50;;
45684;SDS011;46836;48.388;16.210;2023-05-10T03:21:20;7.47;;;3.65;;
45684;SDS011;46836;48.388;16.210;2023-05-10T03:23:56;5.47;;;4.03;;
45684;SDS011;46836;48.388;16.210;2023-05-10T03:26:30;4.93;;;3.92;;
45684;SDS011;46836;48.388;16.210;2023-05-10T03:28:58;4.03;;;3.50;;
45684;SDS011;46836;48.388;16.210;2023-05-10T03:31:26;4.47;;;3.97;;
45684;SDS011;46836;48.388;16.210;2023-05-10T03:33:53;4.38;;;3.90;;
45684;SDS011;46836;48.388;16.210;2023-05-10T03:36:20;6.53;;;4.50;;
45684;SDS011;46836;48.388;16.210;2023-05-10T03:38:47;4.57;;;3.45;;
45684;SDS011;46836;48.388;16.210;2023-05-10T03:41:14;5.45;;;3.75;;
45684;SDS011;46836;48.388;16.210;2023-05-10T03:43:41;5.72;;;3.53;;
45684;SDS011;46836;48.388;16.210;2023-05-10T03:46:08;4.50;;;3.92;;
45684;SDS011;46836;48.388;16.210;2023-05-10T03:48:36;4.47;;;4.05;;
45684;SDS011;46836;48.388;16.210;2023-05-10T03:51:03;4.55;;;3.95;;
45684;SDS011;46836;48.388;16.210;2023-05-10T03:53:30;5.70;;;4.20;;
45684;SDS011;46836;48.388;16.210;2023-05-10T03:55:57;6.43;;;4.28;;
45684;SDS011;46836;48.388;16.210;2023-05-10T03:58:24;5.10;;;3.60;;
45684;SDS011;46836;48.388;16.210;2023-05-10T04:00:51;6.20;;;3.70;;
45684;SDS011;46836;48.388;16.210;2023-05-10T04:03:18;7.15;;;4.78;;
45684;SDS011;46836;48.388;16.210;2023-05-10T04:05:46;6.72;;;4.38;;
45684;SDS011;46836;48.388;16.210;2023-05-10T04:08:13;8.65;;;4.93;;
45684;SDS011;46836;48.388;16.210;2023-05-10T04:10:42;5.00;;;4.15;;
45684;SDS011;46836;48.388;16.210;2023-05-10T04:13:09;6.25;;;4.10;;
45684;SDS011;46836;48.388;16.210;2023-05-10T04:15:37;5.28;;;4.35;;
45684;SDS011;46836;48.388;16.210;2023-05-10T04:18:04;5.70;;;4.05;;
45684;SDS011;46836;48.388;16.210;2023-05-10T04:20:34;4.95;;;4.28;;
45684;SDS011;46836;48.388;16.210;2023-05-10T04:23:01;4.60;;;4.07;;
45684;SDS011;46836;48.388;16.210;2023-05-10T04:25:28;6.15;;;4.03;;
45684;SDS011;46836;48.388;16.210;2023-05-10T04:27:55;5.55;;;4.15;;
45684;SDS011;46836;48.388;16.210;2023-05-10T04:30:22;4.80;;;4.28;;
45684;SDS011;46836;48.388;16.210;2023-05-10T04:32:49;7.78;;;4.60;;
45684;SDS011;46836;48.388;16.210;2023-05-10T04:35:16;4.32;;;3.72;;
45684;SDS011;46836;48.388;16.210;2023-05-10T04:37:43;6.03;;;4.68;;
45684;SDS011;46836;48.388;16.210;2023-05-10T04:40:10;7.18;;;4.70;;
45684;SDS011;46836;48.388;16.210;2023-05-10T04:42:39;7.57;;;4.22;;
45684;SDS011;46836;48.388;16.210;2023-05-10T04:45:07;5.93;;;3.85;;
45684;SDS011;46836;48.388;16.210;2023-05-10T04:47:35;4.65;;;4.15;;
45684;SDS011;46836;48.388;16.210;2023-05-10T04:50:03;5.47;;;4.93;;
45684;SDS011;46836;48.388;16.210;2023-05-10T04:52:31;6.10;;;4.80;;
45684;SDS011;46836;48.388;16.210;2023-05-10T04:54:58;7.25;;;4.75;;
45684;SDS011;46836;48.388;16.210;2023-05-10T04:57:25;5.78;;;4.65;;
45684;SDS011;46836;48.388;16.210;2023-05-10T04:59:52;5.32;;;4.18;;
45684;SDS011;46836;48.388;16.210;2023-05-10T05:02:19;6.65;;;4.53;;
45684;SDS011;46836;48.388;16.210;2023-05-10T05:04:46;8.27;;;4.90;;
45684;SDS011;46836;48.388;16.210;2023-05-10T05:07:13;6.53;;;5.00;;
45684;SDS011;46836;48.388;16.210;2023-05-10T05:09:41;4.90;;;4.40;;
45684;SDS011;46836;48.388;16.210;2023-05-10T05:12:08;7.13;;;4.18;;
45684;SDS011;46836;48.388;16.210;2023-05-10T05:14:40;7.28;;;4.43;;
45684;SDS011;46836;48.388;16.210;2023-05-10T05:17:07;11.70;;;4.70;;
45684;SDS011;46836;48.388;16.210;2023-05-10T05:19:34;5.35;;;4.10;;
45684;SDS011;46836;48.388;16.210;2023-05-10T05:22:02;5.13;;;4.05;;
45684;SDS011;46836;48.388;16.210;2023-05-10T05:24:29;6.38;;;4.63;;
45684;SDS011;46836;48.388;16.210;2023-05-10T05:27:02;4.95;;;4.30;;
45684;SDS011;46836;48.388;16.210;2023-05-10T05:29:29;7.15;;;4.72;;
45684;SDS011;46836;48.388;16.210;2023-05-10T05:31:56;5.60;;;3.85;;
45684;SDS011;46836;48.388;16.210;2023-05-10T05:34:23;6.93;;;4.75;;
45684;SDS011;46836;48.388;16.210;2023-05-10T05:36:50;6.70;;;5.05;;
45684;SDS011;46836;48.388;16.210;2023-05-10T05:39:18;4.85;;;4.30;;
45684;SDS011;46836;48.388;16.210;2023-05-10T05:41:45;5.65;;;4.63;;
45684;SDS011;46836;48.388;16.210;2023-05-10T05:44:12;7.25;;;4.15;;
45684;SDS011;46836;48.388;16.210;2023-05-10T05:46:39;6.47;;;4.15;;
45684;SDS011;46836;48.388;16.210;2023-05-10T05:49:07;8.20;;;5.68;;
45684;SDS011;46836;48.388;16.210;2023-05-10T05:51:34;4.40;;;3.20;;
45684;SDS011;46836;48.388;16.210;2023-05-10T05:54:01;6.18;;;3.85;;
45684;SDS011;46836;48.388;16.210;2023-05-10T05:56:30;5.63;;;4.30;;
45684;SDS011;46836;48.388;16.210;2023-05-10T05:58:57;6.10;;;4.10;;
45684;SDS011;46836;48.388;16.210;2023-05-10T06:01:24;4.68;;;3.85;;
45684;SDS011;46836;48.388;16.210;2023-05-10T06:03:51;4.88;;;3.80;;
45684;SDS011;46836;48.388;16.210;2023-05-10T06:06:19;7.72;;;4.82;;
45684;SDS011;46836;48.388;16.210;2023-05-10T06:08:46;6.40;;;4.43;;
45684;SDS011;46836;48.388;16.210;2023-05-10T06:11:13;4.40;;;3.75;;
45684;SDS011;46836;48.388;16.210;2023-05-10T06:13:40;5.35;;;3.97;;
45684;SDS011;46836;48.388;16.210;2023-05-10T06:16:08;6.15;;;4.10;;
45684;SDS011;46836;48.388;16.210;2023-05-10T06:18:35;4.80;;;3.40;;
45684;SDS011;46836;48.388;16.210;2023-05-10T06:21:02;5.20;;;3.72;;
45684;SDS011;46836;48.388;16.210;2023-05-10T06:23:29;4.63;;;3.50;;
45684;SDS011;46836;48.388;16.210;2023-05-10T06:25:56;3.83;;;3.42;;
45684;SDS011;46836;48.388;16.210;2023-05-10T06:28:23;4.00;;;3.60;;
45684;SDS011;46836;48.388;16.210;2023-05-10T06:30:50;4.95;;;3.53;;
45684;SDS011;46836;48.388;16.210;2023-05-10T06:33:17;11.52;;;3.88;;
45684;SDS011;46836;48.388;16.210;2023-05-10T06:35:44;8.00;;;2.80;;
45684;SDS011;46836;48.388;16.210;2023-05-10T06:38:11;4.03;;;3.28;;
45684;SDS011;46836;48.388;16.210;2023-05-10T06:40:41;11.20;;;3.72;;
45684;SDS011;46836;48.388;16.210;2023-05-10T06:43:09;5.97;;;3.45;;
45684;SDS011;46836;48.388;16.210;2023-05-10T06:45:36;8.30;;;4.40;;
45684;SDS011;46836;48.388;16.210;2023-05-10T06:48:03;5.90;;;3.45;;
45684;SDS011;46836;48.388;16.210;2023-05-10T06:50:30;4.13;;;3.28;;
45684;SDS011;46836;48.388;16.210;2023-05-10T06:52:57;6.95;;;3.67;;
45684;SDS011;46836;48.388;16.210;2023-05-10T06:55:25;5.33;;;3.43;;
45684;SDS011;46836;48.388;16.210;2023-05-10T06:57:52;6.78;;;3.50;;
45684;SDS011;46836;48.388;16.210;2023-05-10T07:00:20;4.40;;;3.90;;
45684;SDS011;46836;48.388;16.210;2023-05-10T07:02:47;6.35;;;3.85;;
45684;SDS011;46836;48.388;16.210;2023-05-10T07:05:14;3.50;;;3.20;;
45684;SDS011;46836;48.388;16.210;2023-05-10T07:07:41;4.57;;;3.67;;
45684;SDS011;46836;48.388;16.210;2023-05-10T07:10:09;7.07;;;3.70;;
45684;SDS011;46836;48.388;16.210;2023-05-10T07:12:36;4.10;;;3.30;;
45684;SDS011;46836;48.388;16.210;2023-05-10T07:15:03;3.83;;;3.23;;
45684;SDS011;46836;48.388;16.210;2023-05-10T07:17:31;6.60;;;3.57;;
45684;SDS011;46836;48.388;16.210;2023-05-10T07:20:00;5.57;;;3.60;;
45684;SDS011;46836;48.388;16.210;2023-05-10T07:22:27;3.63;;;2.90;;
45684;SDS011;46836;48.388;16.210;2023-05-10T07:24:54;3.50;;;3.13;;
45684;SDS011;46836;48.388;16.210;2023-05-10T07:27:21;3.87;;;3.47;;
45684;SDS011;46836;48.388;16.210;2023-05-10T07:29:48;6.50;;;2.90;;
45684;SDS011;46836;48.388;16.210;2023-05-10T07:32:15;3.80;;;3.13;;
45684;SDS011;46836;48.388;16.210;2023-05-10T07:34:42;4.10;;;2.93;;
45684;SDS011;46836;48.388;16.210;2023-05-10T07:37:09;2.73;;;2.40;;
45684;SDS011;46836;48.388;16.210;2023-05-10T07:39:37;3.00;;;2.70;;
45684;SDS011;46836;48.388;16.210;2023-05-10T07:42:04;2.87;;;2.43;;
45684;SDS011;46836;48.388;16.210;2023-05-10T07:44:32;3.43;;;3.00;;
45684;SDS011;46836;48.388;16.210;2023-05-10T07:46:59;2.70;;;2.50;;
45684;SDS011;46836;48.388;16.210;2023-05-10T07:49:26;6.00;;;3.23;;
45684;SDS011;46836;48.388;16.210;2023-05-10T07:51:53;3.40;;;2.93;;
45684;SDS011;46836;48.388;16.210;2023-05-10T07:54:20;3.73;;;2.80;;
45684;SDS011;46836;48.388;16.210;2023-05-10T07:56:47;2.67;;;2.47;;
45684;SDS011;46836;48.388;16.210;2023-05-10T07:59:15;3.47;;;2.20;;
45684;SDS011;46836;48.388;16.210;2023-05-10T08:01:43;3.30;;;2.90;;
45684;SDS011;46836;48.388;16.210;2023-05-10T08:04:10;3.13;;;2.83;;
45684;SDS011;46836;48.388;16.210;2023-05-10T08:06:38;4.67;;;2.70;;
45684;SDS011;46836;48.388;16.210;2023-05-10T08:09:07;2.63;;;2.43;;
45684;SDS011;46836;48.388;16.210;2023-05-10T08:11:34;6.60;;;2.60;;
45684;SDS011;46836;48.388;16.210;2023-05-10T08:14:01;3.10;;;2.60;;
45684;SDS011;46836;48.388;16.210;2023-05-10T08:16:29;3.80;;;3.27;;
45684;SDS011;46836;48.388;16.210;2023-05-10T08:18:56;8.60;;;3.30;;
45684;SDS011;46836;48.388;16.210;2023-05-10T08:21:23;5.70;;;3.57;;
45684;SDS011;46836;48.388;16.210;2023-05-10T08:23:50;5.87;;;3.30;;
45684;SDS011;46836;48.388;16.210;2023-05-10T08:26:17;4.00;;;3.43;;
45684;SDS011;46836;48.388;16.210;2023-05-10T08:28:44;3.63;;;3.00;;
45684;SDS011;46836;48.388;16.210;2023-05-10T08:31:11;6.90;;;4.00;;
45684;SDS011;46836;48.388;16.210;2023-05-10T08:33:38;5.03;;;4.27;;
45684;SDS011;46836;48.388;16.210;2023-05-10T08:36:08;8.27;;;3.93;;
45684;SDS011;46836;48.388;16.210;2023-05-10T08:38:36;5.97;;;4.07;;
45684;SDS011;46836;48.388;16.210;2023-05-10T08:41:04;6.07;;;3.33;;
45684;SDS011;46836;48.388;16.210;2023-05-10T08:43:32;4.13;;;3.50;;
45684;SDS011;46836;48.388;16.210;2023-05-10T08:46:02;5.27;;;3.60;;
45684;SDS011;46836;48.388;16.210;2023-05-10T08:48:33;4.00;;;3.37;;
45684;SDS011;46836;48.388;16.210;2023-05-10T08:51:01;4.30;;;3.60;;
45684;SDS011;46836;48.388;16.210;2023-05-10T08:53:30;4.20;;;3.10;;
45684;SDS011;46836;48.388;16.210;2023-05-10T08:56:00;5.93;;;3.53;;
45684;SDS011;46836;48.388;16.210;2023-05-10T08:58:28;5.70;;;2.80;;
45684;SDS011;46836;48.388;16.210;2023-05-10T09:00:55;3.63;;;3.30;;
45684;SDS011;46836;48.388;16.210;2023-05-10T09:03:24;4.77;;;2.70;;
45684;SDS011;46836;48.388;16.210;2023-05-10T09:05:51;2.90;;;2.60;;
45684;SDS011;46836;48.388;16.210;2023-05-10T09:08:18;4.77;;;3.00;;
45684;SDS011;46836;48.388;16.210;2023-05-10T09:10:46;4.20;;;3.37;;
45684;SDS011;46836;48.388;16.210;2023-05-10T09:13:15;3.60;;;3.30;;
45684;SDS011;46836;48.388;16.210;2023-05-10T09:15:44;3.90;;;2.87;;
45684;SDS011;46836;48.388;16.210;2023-05-10T09:18:12;3.63;;;3.10;;
45684;SDS011;46836;48.388;16.210;2023-05-10T09:20:40;5.40;;;3.57;;
45684;SDS011;46836;48.388;16.210;2023-05-10T09:23:07;6.07;;;3.57;;
45684;SDS011;46836;48.388;16.210;2023-05-10T09:25:35;6.20;;;2.70;;
45684;SDS011;46836;48.388;16.210;2023-05-10T09:28:08;3.53;;;2.70;;
45684;SDS011;46836;48.388;16.210;2023-05-10T09:30:35;7.03;;;3.03;;
45684;SDS011;46836;48.388;16.210;2023-05-10T09:33:03;3.37;;;3.07;;
45684;SDS011;46836;48.388;16.210;2023-05-10T09:35:31;3.70;;;3.20;;
45684;SDS011;46836;48.388;16.210;2023-05-10T09:38:02;2.90;;;2.60;;
45684;SDS011;46836;48.388;16.210;2023-05-10T09:40:30;2.97;;;2.57;;
45684;SDS011;46836;48.388;16.210;2023-05-10T09:42:59;3.77;;;2.03;;
45684;SDS011;46836;48.388;16.210;2023-05-10T09:45:29;4.80;;;2.40;;
45684;SDS011;46836;48.388;16.210;2023-05-10T09:47:58;9.13;;;2.33;;
45684;SDS011;46836;48.388;16.210;2023-05-10T09:50:28;3.67;;;2.57;;
45684;SDS011;46836;48.388;16.210;2023-05-10T09:52:57;3.80;;;2.50;;
45684;SDS011;46836;48.388;16.210;2023-05-10T09:58:05;5.40;;;2.00;;
45684;SDS011;46836;48.388;16.210;2023-05-10T10:00:37;4.00;;;2.20;;
45684;SDS011;46836;48.388;16.210;2023-05-10T10:03:07;1.90;;;1.70;;
45684;SDS011;46836;48.388;16.210;2023-05-10T10:05:40;2.60;;;2.00;;
45684;SDS011;46836;48.388;16.210;2023-05-10T10:08:10;2.90;;;1.70;;
45684;SDS011;46836;48.388;16.210;2023-05-10T10:10:38;2.20;;;2.00;;
45684;SDS011;46836;48.388;16.210;2023-05-10T10:13:11;3.33;;;1.80;;
45684;SDS011;46836;48.388;16.210;2023-05-10T10:15:39;1.63;;;1.40;;
45684;SDS011;46836;48.388;16.210;2023-05-10T10:18:06;2.50;;;1.90;;
45684;SDS011;46836;48.388;16.210;2023-05-10T10:20:38;2.13;;;1.63;;
45684;SDS011;46836;48.388;16.210;2023-05-10T10:23:05;3.13;;;1.40;;
45684;SDS011;46836;48.388;16.210;2023-05-10T10:25:34;1.50;;;1.40;;
45684;SDS011;46836;48.388;16.210;2023-05-10T10:30:48;2.17;;;1.73;;
45684;SDS011;46836;48.388;16.210;2023-05-10T10:36:17;4.60;;;1.87;;
45684;SDS011;46836;48.388;16.210;2023-05-10T10:41:32;2.50;;;1.40;;
45684;SDS011;46836;48.388;16.210;2023-05-10T10:44:22;2.80;;;1.43;;
45684;SDS011;46836;48.388;16.210;2023-05-10T10:55:12;1.57;;;1.47;;
45684;SDS011;46836;48.388;16.210;2023-05-10T10:57:48;1.70;;;1.60;;
45684;SDS011;46836;48.388;16.210;2023-05-10T11:02:49;2.97;;;1.40;;
45684;SDS011;46836;48.388;16.210;2023-05-10T11:10:52;2.00;;;1.30;;
45684;SDS011;46836;48.388;16.210;2023-05-10T11:15:55;2.80;;;1.40;;
45684;SDS011;46836;48.388;16.210;2023-05-10T11:18:24;4.20;;;1.53;;
45684;SDS011;46836;48.388;16.210;2023-05-10T11:23:28;2.53;;;1.60;;
45684;SDS011;46836;48.388;16.210;2023-05-10T11:25:57;1.70;;;1.50;;
45684;SDS011;46836;48.388;16.210;2023-05-10T11:28:25;1.53;;;1.43;;
45684;SDS011;46836;48.388;16.210;2023-05-10T11:30:54;3.10;;;1.60;;
45684;SDS011;46836;48.388;16.210;2023-05-10T11:33:21;4.73;;;2.20;;
45684;SDS011;46836;48.388;16.210;2023-05-10T11:35:48;1.70;;;1.60;;
45684;SDS011;46836;48.388;16.210;2023-05-10T11:38:15;6.90;;;1.80;;
45684;SDS011;46836;48.388;16.210;2023-05-10T11:40:42;1.80;;;1.47;;
45684;SDS011;46836;48.388;16.210;2023-05-10T11:43:10;3.40;;;1.87;;
45684;SDS011;46836;48.388;16.210;2023-05-10T11:45:37;1.83;;;1.70;;
45684;SDS011;46836;48.388;16.210;2023-05-10T11:48:06;2.30;;;1.97;;
45684;SDS011;46836;48.388;16.210;2023-05-10T11:50:34;3.10;;;1.37;;
45684;SDS011;46836;48.388;16.210;2023-05-10T11:53:01;8.07;;;2.13;;
45684;SDS011;46836;48.388;16.210;2023-05-10T11:55:28;2.53;;;2.10;;
45684;SDS011;46836;48.388;16.210;2023-05-10T11:57:59;1.77;;;1.67;;
45684;SDS011;46836;48.388;16.210;2023-05-10T12:00:28;2.17;;;1.90;;
45684;SDS011;46836;48.388;16.210;2023-05-10T12:02:56;8.30;;;1.87;;
45684;SDS011;46836;48.388;16.210;2023-05-10T12:05:23;2.00;;;1.67;;
45684;SDS011;46836;48.388;16.210;2023-05-10T12:07:51;2.57;;;1.33;;
45684;SDS011;46836;48.388;16.210;2023-05-10T12:10:24;1.73;;;1.63;;
45684;SDS011;46836;48.388;16.210;2023-05-10T12:12:53;1.37;;;1.27;;
45684;SDS011;46836;48.388;16.210;2023-05-10T12:15:24;4.00;;;1.60;;
45684;SDS011;46836;48.388;16.210;2023-05-10T12:17:51;1.73;;;1.53;;
45684;SDS011;46836;48.388;16.210;2023-05-10T12:20:19;2.37;;;1.40;;
45684;SDS011;46836;48.388;16.210;2023-05-10T12:22:54;2.10;;;1.90;;
45684;SDS011;46836;48.388;16.210;2023-05-10T12:25:29;2.07;;;1.60;;
45684;SDS011;46836;48.388;16.210;2023-05-10T12:27:57;2.03;;;1.47;;
45684;SDS011;46836;48.388;16.210;2023-05-10T12:30:28;2.10;;;1.70;;
45684;SDS011;46836;48.388;16.210;2023-05-10T12:33:00;4.80;;;1.60;;
45684;SDS011;46836;48.388;16.210;2023-05-10T12:35:31;1.70;;;1.53;;
45684;SDS011;46836;48.388;16.210;2023-05-10T12:37:58;2.20;;;1.90;;
45684;SDS011;46836;48.388;16.210;2023-05-10T12:40:26;1.70;;;1.60;;
45684;SDS011;46836;48.388;16.210;2023-05-10T12:42:53;2.10;;;1.40;;
45684;SDS011;46836;48.388;16.210;2023-05-10T12:45:20;2.30;;;1.47;;
45684;SDS011;46836;48.388;16.210;2023-05-10T12:47:47;3.07;;;1.67;;
45684;SDS011;46836;48.388;16.210;2023-05-10T12:50:14;3.10;;;1.53;;
45684;SDS011;46836;48.388;16.210;2023-05-10T12:52:41;1.73;;;1.63;;
45684;SDS011;46836;48.388;16.210;2023-05-10T12:55:08;2.43;;;1.37;;
45684;SDS011;46836;48.388;16.210;2023-05-10T12:57:35;2.50;;;1.97;;
45684;SDS011;46836;48.388;16.210;2023-05-10T13:00:02;2.00;;;1.33;;
45684;SDS011;46836;48.388;16.210;2023-05-10T13:02:31;2.53;;;1.90;;
45684;SDS011;46836;48.388;16.210;2023-05-10T13:04:58;2.30;;;1.87;;
45684;SDS011;46836;48.388;16.210;2023-05-10T13:07:25;3.20;;;1.20;;
45684;SDS011;46836;48.388;16.210;2023-05-10T13:09:52;2.37;;;1.50;;
45684;SDS011;46836;48.388;16.210;2023-05-10T13:12:19;1.87;;;1.70;;
45684;SDS011;46836;48.388;16.210;2023-05-10T13:14:46;2.00;;;1.80;;
45684;SDS011;46836;48.388;16.210;2023-05-10T13:17:13;2.20;;;1.53;;
45684;SDS011;46836;48.388;16.210;2023-05-10T13:19:40;2.67;;;1.60;;
45684;SDS011;46836;48.388;16.210;2023-05-10T13:22:07;2.43;;;1.43;;
45684;SDS011;46836;48.388;16.210;2023-05-10T13:24:34;3.30;;;2.10;;
45684;SDS011;46836;48.388;16.210;2023-05-10T13:27:01;2.37;;;2.17;;
45684;SDS011;46836;48.388;16.210;2023-05-10T13:29:28;2.43;;;1.83;;
45684;SDS011;46836;48.388;16.210;2023-05-10T13:31:55;4.80;;;2.30;;
45684;SDS011;46836;48.388;16.210;2023-05-10T13:34:22;2.10;;;1.83;;
45684;SDS011;46836;48.388;16.210;2023-05-10T13:36:50;2.00;;;1.80;;
45684;SDS011;46836;48.388;16.210;2023-05-10T13:39:17;2.60;;;1.90;;
45684;SDS011;46836;48.388;16.210;2023-05-10T13:41:44;2.07;;;1.87;;
45684;SDS011;46836;48.388;16.210;2023-05-10T13:44:14;2.80;;;2.60;;
45684;SDS011;46836;48.388;16.210;2023-05-10T13:46:41;3.03;;;2.20;;
45684;SDS011;46836;48.388;16.210;2023-05-10T13:49:09;7.87;;;2.47;;
45684;SDS011;46836;48.388;16.210;2023-05-10T13:51:37;2.10;;;2.00;;
45684;SDS011;46836;48.388;16.210;2023-05-10T13:54:04;6.27;;;2.57;;
45684;SDS011;46836;48.388;16.210;2023-05-10T13:56:31;2.93;;;2.73;;
45684;SDS011;46836;48.388;16.210;2023-05-10T13:58:58;4.53;;;2.20;;
45684;SDS011;46836;48.388;16.210;2023-05-10T14:01:25;2.70;;;2.50;;
45684;SDS011;46836;48.388;16.210;2023-05-10T14:03:53;4.77;;;2.73;;
45684;SDS011;46836;48.388;16.210;2023-05-10T14:06:20;3.20;;;2.90;;
45684;SDS011;46836;48.388;16.210;2023-05-10T14:08:48;2.83;;;2.63;;
45684;SDS011;46836;48.388;16.210;2023-05-10T14:11:15;8.20;;;3.30;;
45684;SDS011;46836;48.388;16.210;2023-05-10T14:13:42;2.80;;;2.30;;
45684;SDS011;46836;48.388;16.210;2023-05-10T14:16:09;2.73;;;2.53;;
45684;SDS011;46836;48.388;16.210;2023-05-10T14:18:36;3.53;;;2.83;;
45684;SDS011;46836;48.388;16.210;2023-05-10T14:21:03;2.80;;;2.27;;
45684;SDS011;46836;48.388;16.210;2023-05-10T14:23:30;2.57;;;2.20;;
45684;SDS011;46836;48.388;16.210;2023-05-10T14:25:57;2.53;;;2.33;;
45684;SDS011;46836;48.388;16.210;2023-05-10T14:28:24;3.60;;;2.67;;
45684;SDS011;46836;48.388;16.210;2023-05-10T14:30:51;3.23;;;2.73;;
45684;SDS011;46836;48.388;16.210;2023-05-10T14:33:18;2.60;;;2.40;;
45684;SDS011;46836;48.388;16.210;2023-05-10T14:35:45;3.33;;;2.10;;
45684;SDS011;46836;48.388;16.210;2023-05-10T14:38:13;3.27;;;2.40;;
45684;SDS011;46836;48.388;16.210;2023-05-10T14:40:40;2.43;;;2.20;;
45684;SDS011;46836;48.388;16.210;2023-05-10T14:43:08;4.93;;;2.30;;
45684;SDS011;46836;48.388;16.210;2023-05-10T14:45:36;1.93;;;1.83;;
45684;SDS011;46836;48.388;16.210;2023-05-10T14:48:03;2.20;;;2.03;;
45684;SDS011;46836;48.388;16.210;2023-05-10T14:50:31;2.20;;;2.00;;
45684;SDS011;46836;48.388;16.210;2023-05-10T14:53:03;2.37;;;2.17;;
45684;SDS011;46836;48.388;16.210;2023-05-10T14:55:30;4.70;;;2.23;;
45684;SDS011;46836;48.388;16.210;2023-05-10T14:57:57;2.70;;;2.23;;
45684;SDS011;46836;48.388;16.210;2023-05-10T15:00:25;2.17;;;1.77;;
45684;SDS011;46836;48.388;16.210;2023-05-10T15:02:53;2.50;;;2.30;;
45684;SDS011;46836;48.388;16.210;2023-05-10T15:05:21;4.10;;;2.43;;
45684;SDS011;46836;48.388;16.210;2023-05-10T15:07:48;3.07;;;2.20;;
45684;SDS011;46836;48.388;16.210;2023-05-10T15:10:15;3.40;;;1.93;;
45684;SDS011;46836;48.388;16.210;2023-05-10T15:12:44;2.87;;;1.97;;
45684;SDS011;46836;48.388;16.210;2023-05-10T15:15:11;1.80;;;1.70;;
45684;SDS011;46836;48.388;16.210;2023-05-10T15:17:38;2.43;;;2.20;;
45684;SDS011;46836;48.388;16.210;2023-05-10T15:20:05;3.93;;;2.33;;
45684;SDS011;46836;48.388;16.210;2023-05-10T15:22:33;2.47;;;2.00;;
45684;SDS011;46836;48.388;16.210;2023-05-10T15:25:00;2.30;;;2.10;;
45684;SDS011;46836;48.388;16.210;2023-05-10T15:27:27;1.97;;;1.87;;
45684;SDS011;46836;48.388;16.210;2023-05-10T15:29:54;4.53;;;1.80;;
45684;SDS011;46836;48.388;16.210;2023-05-10T15:32:22;2.20;;;2.00;;
45684;SDS011;46836;48.388;16.210;2023-05-10T15:34:49;1.63;;;1.50;;